Time;durP1;ratioP1;P1;durP2;ratioP2;P2;SDS_P1;SDS_P2;PMS_P1;PMS_P2;Temp;Humidity;BMP_temperature;BMP_pressure;BME280_temperature;BME280_humidity;BME280_pressure;Samples;Min_cycle;Max_cycle;Signal;HPM_P1;HPM_P2
2022/04/07 00:01:14;;;;;;;;;7.00;7.00;;;;;;;;5043887;28;45437;-76
2022/04/07 00:03:39;;;;;;;;;4.50;4.50;;;;;;;;5046706;28;45420;-76
2022/04/07 00:06:09;;;;;;;;;4.75;4.00;;;;;;;;5044584;28;48000;-76
2022/04/07 00:08:35;;;;;;;;;2.00;2.00;;;;;;;;5044859;28;45281;-75
2022/04/07 00:11:00;;;;;;;;;3.50;2.50;;;;;;;;5046305;28;45498;-77
2022/04/07 00:13:25;;;;;;;;;2.00;2.00;;;;;;;;5045172;28;45349;-76
2022/04/07 00:15:53;;;;;;;;;1.00;1.00;;;;;;;;5036284;28;46221;-77
2022/04/07 00:18:18;;;;;;;;;2.00;2.00;;;;;;;;5037283;28;45538;-77
2022/04/07 00:20:44;;;;;;;;;2.00;2.00;;;;;;;;5035476;28;45275;-77
2022/04/07 00:23:09;;;;;;;;;2.25;2.00;;;;;;;;5037633;28;45476;-77
2022/04/07 00:25:34;;;;;;;;;1.50;1.50;;;;;;;;5035897;28;47068;-77
2022/04/07 00:28:00;;;;;;;;;2.00;2.00;;;;;;;;5036865;28;45514;-77
2022/04/07 00:30:25;;;;;;;;;2.00;2.00;;;;;;;;5035899;28;45742;-77
2022/04/07 00:32:50;;;;;;;;;2.00;2.00;;;;;;;;5036078;28;45299;-77
2022/04/07 00:35:17;;;;;;;;;2.75;2.00;;;;;;;;5035899;28;46648;-77
2022/04/07 00:37:42;;;;;;;;;1.00;1.00;;;;;;;;5037057;28;45377;-77
2022/04/07 00:40:09;;;;;;;;;3.00;3.00;;;;;;;;5035831;28;45587;-77
2022/04/07 00:42:42;;;;;;;;;2.00;2.00;;;;;;;;5036947;28;45354;-76
2022/04/07 00:45:08;;;;;;;;;1.25;1.00;;;;;;;;5036867;28;46400;-77
2022/04/07 00:47:33;;;;;;;;;1.00;1.00;;;;;;;;5036484;28;45390;-77
2022/04/07 00:49:58;;;;;;;;;2.00;1.75;;;;;;;;5036564;28;45308;-77
2022/04/07 00:52:24;;;;;;;;;2.75;2.00;;;;;;;;5035641;28;45397;-77
2022/04/07 00:54:49;;;;;;;;;2.00;1.00;;;;;;;;5036832;28;45497;-77
2022/04/07 00:57:15;;;;;;;;;2.00;2.00;;;;;;;;5035297;28;45340;-76
2022/04/07 00:59:41;;;;;;;;;1.00;1.00;;;;;;;;5035383;28;45482;-75
2022/04/07 01:02:09;;;;;;;;;1.00;1.00;;;;;;;;5036954;28;45449;-77
2022/04/07 01:04:34;;;;;;;;;1.00;1.00;;;;;;;;5036351;28;45411;-76
2022/04/07 01:06:59;;;;;;;;;3.00;1.75;;;;;;;;5036391;28;45381;-77
2022/04/07 01:09:25;;;;;;;;;1.75;1.75;;;;;;;;5035152;28;45452;-77
2022/04/07 01:11:51;;;;;;;;;1.25;1.00;;;;;;;;5036935;28;45526;-77
2022/04/07 01:14:16;;;;;;;;;1.00;0.75;;;;;;;;5036491;28;45465;-77
2022/04/07 01:16:42;;;;;;;;;0.75;0.75;;;;;;;;5035003;28;45358;-76
2022/04/07 01:19:07;;;;;;;;;0.75;0.75;;;;;;;;5036372;28;45464;-76
2022/04/07 01:21:34;;;;;;;;;1.00;1.00;;;;;;;;5036696;28;45363;-76
2022/04/07 01:23:59;;;;;;;;;1.00;1.00;;;;;;;;5036634;28;45495;-77
2022/04/07 01:26:25;;;;;;;;;1.25;1.00;;;;;;;;5034845;28;45621;-77
2022/04/07 01:28:50;;;;;;;;;1.00;1.00;;;;;;;;5036695;28;45524;-77
2022/04/07 01:31:16;;;;;;;;;0.75;0.00;;;;;;;;5036748;28;45546;-77
2022/04/07 01:33:41;;;;;;;;;5.00;4.00;;;;;;;;5039368;28;45382;-77
2022/04/07 01:36:07;;;;;;;;;14.25;11.75;;;;;;;;5039863;28;45499;-77
2022/04/07 01:38:32;;;;;;;;;19.25;13.75;;;;;;;;5038409;28;45505;-78
2022/04/07 01:40:58;;;;;;;;;9.75;9.00;;;;;;;;5038269;28;45477;-77
2022/04/07 01:43:23;;;;;;;;;2.50;1.50;;;;;;;;5038247;28;47895;-77
2022/04/07 01:45:49;;;;;;;;;2.75;2.75;;;;;;;;5038770;28;45231;-77
2022/04/07 01:48:15;;;;;;;;;2.00;2.00;;;;;;;;5038353;28;45503;-76
2022/04/07 01:50:41;;;;;;;;;52.75;43.75;;;;;;;;5038242;28;45616;-76
2022/04/07 01:53:07;;;;;;;;;41.25;34.00;;;;;;;;5037810;28;46748;-76
2022/04/07 01:55:32;;;;;;;;;44.25;36.25;;;;;;;;5039045;28;45421;-76
2022/04/07 01:57:58;;;;;;;;;22.25;20.00;;;;;;;;5037756;28;45274;-77
2022/04/07 02:00:23;;;;;;;;;4.00;3.50;;;;;;;;5039702;28;45508;-77
2022/04/07 02:05:52;;;;;;;;;3.00;3.00;;;;;;;;5039705;28;45436;-77
2022/04/07 02:08:17;;;;;;;;;12.75;11.25;;;;;;;;5037852;28;45416;-77
2022/04/07 02:10:42;;;;;;;;;15.00;13.50;;;;;;;;5038227;28;45528;-77
2022/04/07 02:13:08;;;;;;;;;4.00;3.75;;;;;;;;5039232;28;46229;-76
2022/04/07 02:15:33;;;;;;;;;9.00;9.00;;;;;;;;5039080;28;45491;-76
2022/04/07 02:17:59;;;;;;;;;27.75;26.25;;;;;;;;5037646;28;45385;-76
2022/04/07 02:20:24;;;;;;;;;10.50;8.75;;;;;;;;5038401;28;45403;-77
2022/04/07 02:22:49;;;;;;;;;11.00;10.00;;;;;;;;5038792;28;45501;-77
2022/04/07 02:25:15;;;;;;;;;9.50;9.00;;;;;;;;5039005;28;45530;-77
2022/04/07 02:27:41;;;;;;;;;2.00;2.00;;;;;;;;5038681;28;45790;-76
2022/04/07 02:30:08;;;;;;;;;2.50;2.50;;;;;;;;5039244;28;46134;-76
2022/04/07 02:32:34;;;;;;;;;4.00;4.00;;;;;;;;5037543;28;46759;-77
2022/04/07 02:35:00;;;;;;;;;4.50;4.00;;;;;;;;5037450;28;45551;-76
2022/04/07 02:37:25;;;;;;;;;6.00;6.00;;;;;;;;5039245;28;45482;-76
2022/04/07 02:39:52;;;;;;;;;3.00;3.00;;;;;;;;5037879;28;45722;-77
2022/04/07 02:42:18;;;;;;;;;1.00;1.00;;;;;;;;5038609;28;46572;-77
2022/04/07 02:44:44;;;;;;;;;2.00;1.00;;;;;;;;5036984;28;45405;-77
2022/04/07 02:47:09;;;;;;;;;1.00;1.00;;;;;;;;5037423;28;45515;-76
2022/04/07 02:49:34;;;;;;;;;1.00;1.00;;;;;;;;5037687;28;45310;-77
2022/04/07 02:52:00;;;;;;;;;20.00;18.75;;;;;;;;5038563;28;46650;-76
2022/04/07 02:54:25;;;;;;;;;35.00;33.50;;;;;;;;5038531;28;45299;-76
2022/04/07 02:56:50;;;;;;;;;26.00;23.25;;;;;;;;5037091;28;45402;-77
2022/04/07 02:59:16;;;;;;;;;24.00;23.00;;;;;;;;5038367;28;45375;-77
2022/04/07 03:01:43;;;;;;;;;14.50;13.75;;;;;;;;5042452;28;46337;-76
2022/04/07 03:04:09;;;;;;;;;10.50;10.50;;;;;;;;5056751;28;45863;-77
2022/04/07 03:06:34;;;;;;;;;3.00;3.00;;;;;;;;5056387;28;45455;-77
2022/04/07 03:08:59;;;;;;;;;4.75;3.50;;;;;;;;5055594;28;45329;-77
2022/04/07 03:11:25;;;;;;;;;8.00;6.00;;;;;;;;5055463;28;45510;-77
2022/04/07 03:13:50;;;;;;;;;8.50;7.75;;;;;;;;5056624;28;45496;-78
2022/04/07 03:16:15;;;;;;;;;27.00;26.75;;;;;;;;5056765;28;45401;-77
2022/04/07 03:18:41;;;;;;;;;20.25;19.00;;;;;;;;5056767;28;45314;-77
2022/04/07 03:21:06;;;;;;;;;1.25;1.25;;;;;;;;5055234;28;45721;-77
2022/04/07 03:23:32;;;;;;;;;2.00;2.00;;;;;;;;5056514;28;45461;-76
2022/04/07 03:25:57;;;;;;;;;2.00;2.00;;;;;;;;5056935;28;45454;-77
2022/04/07 03:28:22;;;;;;;;;1.75;1.00;;;;;;;;5056469;28;45302;-75
2022/04/07 03:30:48;;;;;;;;;1.75;1.75;;;;;;;;5056327;28;46491;-76
2022/04/07 03:33:13;;;;;;;;;2.00;2.00;;;;;;;;5054977;28;45458;-76
2022/04/07 03:35:39;;;;;;;;;5.00;5.00;;;;;;;;5055224;28;45391;-75
2022/04/07 03:38:07;;;;;;;;;1.25;1.00;;;;;;;;5055080;28;45528;-75
2022/04/07 03:40:34;;;;;;;;;1.50;1.50;;;;;;;;5054705;28;45462;-76
2022/04/07 03:43:00;;;;;;;;;1.50;1.00;;;;;;;;5055938;28;45373;-77
2022/04/07 03:45:25;;;;;;;;;0.25;0.25;;;;;;;;5058542;28;45329;-77
2022/04/07 03:47:51;;;;;;;;;1.75;1.75;;;;;;;;5058250;28;45355;-77
2022/04/07 03:50:16;;;;;;;;;1.00;1.00;;;;;;;;5057929;28;46037;-77
2022/04/07 03:52:41;;;;;;;;;2.00;2.00;;;;;;;;5056667;28;45480;-77
2022/04/07 03:55:07;;;;;;;;;3.00;2.75;;;;;;;;5054720;28;45704;-78
2022/04/07 03:57:32;;;;;;;;;8.00;6.00;;;;;;;;5057496;28;45573;-77
2022/04/07 03:59:58;;;;;;;;;90.67;76.00;;;;;;;;5056379;28;47406;-77
2022/04/07 04:02:23;;;;;;;;;98.00;85.67;;;;;;;;5057334;28;45523;-77
2022/04/07 04:04:49;;;;;;;;;77.25;60.50;;;;;;;;5057677;28;45396;-77
2022/04/07 04:07:14;;;;;;;;;25.25;22.50;;;;;;;;5056665;28;45470;-77
2022/04/07 04:09:40;;;;;;;;;11.00;10.00;;;;;;;;5057603;28;45482;-77
2022/04/07 04:12:05;;;;;;;;;0.75;0.75;;;;;;;;5057632;28;45320;-78
2022/04/07 04:14:31;;;;;;;;;7.00;7.00;;;;;;;;5056238;28;45464;-77
2022/04/07 04:16:56;;;;;;;;;11.50;9.75;;;;;;;;5057911;28;45226;-77
2022/04/07 04:19:22;;;;;;;;;4.25;4.00;;;;;;;;5057400;28;45486;-77
2022/04/07 04:21:47;;;;;;;;;5.50;5.50;;;;;;;;5056211;28;45369;-77
2022/04/07 04:24:12;;;;;;;;;6.50;5.50;;;;;;;;5057383;28;45231;-77
2022/04/07 04:26:38;;;;;;;;;1.00;1.00;;;;;;;;5057386;28;45193;-77
2022/04/07 04:29:03;;;;;;;;;3.25;3.25;;;;;;;;5055888;28;45421;-77
2022/04/07 04:31:29;;;;;;;;;4.00;4.00;;;;;;;;5056364;28;45550;-77
2022/04/07 04:33:54;;;;;;;;;10.50;9.50;;;;;;;;5056034;28;45529;-77
2022/04/07 04:36:20;;;;;;;;;9.00;8.75;;;;;;;;5057273;28;45385;-77
2022/04/07 04:38:46;;;;;;;;;9.00;8.75;;;;;;;;5055469;28;45340;-77
2022/04/07 04:41:12;;;;;;;;;4.50;4.00;;;;;;;;5055832;28;45179;-77
2022/04/07 04:43:37;;;;;;;;;16.00;15.25;;;;;;;;5056998;28;45528;-77
2022/04/07 04:46:03;;;;;;;;;4.75;4.75;;;;;;;;5057397;28;45455;-77
2022/04/07 04:48:28;;;;;;;;;1.00;1.00;;;;;;;;5057330;28;46559;-77
2022/04/07 04:50:55;;;;;;;;;7.25;7.25;;;;;;;;5057091;28;45468;-77
2022/04/07 04:53:22;;;;;;;;;9.75;9.75;;;;;;;;5057249;28;45505;-77
2022/04/07 04:55:47;;;;;;;;;2.25;2.00;;;;;;;;5055858;28;45624;-77
2022/04/07 04:58:14;;;;;;;;;3.00;2.00;;;;;;;;5056669;28;46124;-77
2022/04/07 05:00:39;;;;;;;;;2.00;2.00;;;;;;;;5057232;28;45562;-77
2022/04/07 05:03:05;;;;;;;;;6.75;4.75;;;;;;;;5055433;28;45369;-77
2022/04/07 05:05:30;;;;;;;;;3.00;3.00;;;;;;;;5057653;28;45187;-77
2022/04/07 05:07:55;;;;;;;;;1.25;1.25;;;;;;;;5060232;28;47230;-77
2022/04/07 05:10:21;;;;;;;;;3.00;3.00;;;;;;;;5060255;28;45456;-77
2022/04/07 05:12:46;;;;;;;;;24.50;23.50;;;;;;;;5060492;28;45237;-77
2022/04/07 05:15:11;;;;;;;;;5.50;5.50;;;;;;;;5059019;28;45659;-77
2022/04/07 05:17:37;;;;;;;;;3.00;2.00;;;;;;;;5058821;28;46537;-77
2022/04/07 05:20:03;;;;;;;;;5.25;5.00;;;;;;;;5059265;28;45507;-77
2022/04/07 05:22:28;;;;;;;;;4.00;3.00;;;;;;;;5060560;28;45341;-77
2022/04/07 05:24:53;;;;;;;;;3.00;3.00;;;;;;;;5058983;28;45332;-77
2022/04/07 05:27:19;;;;;;;;;2.25;2.25;;;;;;;;5059068;28;46206;-77
2022/04/07 05:29:44;;;;;;;;;2.00;1.75;;;;;;;;5060323;28;45847;-77
2022/04/07 05:32:09;;;;;;;;;5.00;5.00;;;;;;;;5059005;28;45840;-77
2022/04/07 05:34:35;;;;;;;;;9.25;8.50;;;;;;;;5058965;28;45528;-77
2022/04/07 05:37:00;;;;;;;;;13.25;11.50;;;;;;;;5057755;28;46682;-76
2022/04/07 05:39:26;;;;;;;;;8.00;8.00;;;;;;;;5058117;28;45326;-76
2022/04/07 05:41:51;;;;;;;;;9.50;8.75;;;;;;;;5049512;28;45306;-76
2022/04/07 05:44:16;;;;;;;;;8.75;7.00;;;;;;;;5047595;28;45456;-77
2022/04/07 05:46:42;;;;;;;;;8.25;8.00;;;;;;;;5046750;28;46539;-75
2022/04/07 05:49:10;;;;;;;;;6.00;5.25;;;;;;;;5046875;28;45322;-76
2022/04/07 05:51:35;;;;;;;;;3.00;2.00;;;;;;;;5047082;28;45487;-76
2022/04/07 05:54:01;;;;;;;;;8.50;7.75;;;;;;;;5060134;28;45580;-77
2022/04/07 05:56:26;;;;;;;;;8.25;4.75;;;;;;;;5067943;27;46330;-77
2022/04/07 05:58:51;;;;;;;;;5.50;4.00;;;;;;;;5068939;27;45574;-76
2022/04/07 06:01:17;;;;;;;;;73.75;57.75;;;;;;;;5069533;28;45467;-77
2022/04/07 06:03:43;;;;;;;;;39.00;36.50;;;;;;;;5068000;27;45473;-77
2022/04/07 06:06:08;;;;;;;;;17.25;17.00;;;;;;;;5069063;28;45753;-74
2022/04/07 06:08:34;;;;;;;;;30.50;28.50;;;;;;;;5069047;28;45561;-76
2022/04/07 06:10:59;;;;;;;;;9.25;8.50;;;;;;;;5055888;27;45494;-76
2022/04/07 06:13:25;;;;;;;;;13.00;10.00;;;;;;;;5046803;28;45603;-77
2022/04/07 06:15:50;;;;;;;;;8.00;8.00;;;;;;;;5047797;28;45423;-75
2022/04/07 06:18:16;;;;;;;;;4.00;2.00;;;;;;;;5045089;28;45424;-75
2022/04/07 06:20:42;;;;;;;;;3.00;3.00;;;;;;;;5048753;28;45428;-75
2022/04/07 06:23:08;;;;;;;;;3.00;2.00;;;;;;;;5048018;28;45488;-75
2022/04/07 06:25:33;;;;;;;;;4.25;4.00;;;;;;;;5047396;28;45670;-75
2022/04/07 06:28:02;;;;;;;;;3.25;3.25;;;;;;;;5048607;28;45365;-76
2022/04/07 06:30:28;;;;;;;;;4.50;4.25;;;;;;;;5048957;28;45602;-74
2022/04/07 06:32:53;;;;;;;;;8.00;6.00;;;;;;;;5046937;28;45460;-75
2022/04/07 06:35:18;;;;;;;;;10.50;9.50;;;;;;;;5048400;28;45502;-75
2022/04/07 06:37:49;;;;;;;;;3.75;3.75;;;;;;;;5048424;28;45426;-75
2022/04/07 06:40:17;;;;;;;;;10.25;10.25;;;;;;;;5047632;28;45238;-73
2022/04/07 06:42:42;;;;;;;;;14.00;13.00;;;;;;;;5047724;28;45472;-74
2022/04/07 06:45:07;;;;;;;;;14.00;12.50;;;;;;;;5049091;28;46031;-75
2022/04/07 06:47:40;;;;;;;;;21.00;18.75;;;;;;;;5046735;28;45542;-77
2022/04/07 06:50:06;;;;;;;;;14.75;13.25;;;;;;;;5049626;28;45478;-78
2022/04/07 06:52:32;;;;;;;;;15.75;15.75;;;;;;;;5046387;28;45665;-71
2022/04/07 06:54:57;;;;;;;;;12.75;12.25;;;;;;;;5046371;28;45437;-76
2022/04/07 06:57:22;;;;;;;;;44.00;37.75;;;;;;;;5055545;28;45460;-72
2022/04/07 06:59:48;;;;;;;;;36.50;32.00;;;;;;;;5058397;28;45492;-72
2022/04/07 07:02:14;;;;;;;;;13.50;12.00;;;;;;;;5056541;28;45577;-76
2022/04/07 07:04:39;;;;;;;;;10.67;9.67;;;;;;;;5051680;28;46846;-74
2022/04/07 07:07:05;;;;;;;;;8.00;8.00;;;;;;;;5052074;28;45392;-75
2022/04/07 07:09:31;;;;;;;;;9.00;8.00;;;;;;;;5058346;28;45416;-76
2022/04/07 07:11:56;;;;;;;;;7.67;7.00;;;;;;;;5054100;28;45495;-74
2022/04/07 07:14:22;;;;;;;;;53.00;38.75;;;;;;;;5039502;27;45507;-75
2022/04/07 07:16:48;;;;;;;;;39.50;25.00;;;;;;;;5037731;28;45491;-77
2022/04/07 07:19:15;;;;;;;;;49.25;34.75;;;;;;;;5056038;28;45457;-81
2022/04/07 07:21:40;;;;;;;;;45.00;27.00;;;;;;;;5057397;28;45480;-74
2022/04/07 07:24:06;;;;;;;;;23.67;16.67;;;;;;;;5055762;28;45693;-76
2022/04/07 07:26:31;;;;;;;;;23.00;12.33;;;;;;;;5055828;28;45351;-77
2022/04/07 07:28:56;;;;;;;;;49.00;29.33;;;;;;;;5057204;28;45447;-74
2022/04/07 07:31:22;;;;;;;;;13.33;11.00;;;;;;;;5055867;28;45460;-74
2022/04/07 07:33:47;;;;;;;;;13.33;8.00;;;;;;;;5055991;28;45660;-74
2022/04/07 07:36:14;;;;;;;;;6.33;5.33;;;;;;;;5055518;28;45386;-79
2022/04/07 07:38:39;;;;;;;;;12.00;9.00;;;;;;;;5055687;28;45575;-79
2022/04/07 07:41:05;;;;;;;;;6.00;5.00;;;;;;;;5056075;28;45602;-76
2022/04/07 07:43:30;;;;;;;;;7.00;5.67;;;;;;;;5054913;28;45417;-79
2022/04/07 07:45:56;;;;;;;;;4.67;4.00;;;;;;;;5054653;28;45865;-75
2022/04/07 07:48:28;;;;;;;;;4.00;3.00;;;;;;;;5056417;28;45651;-84
2022/04/07 07:50:54;;;;;;;;;1.33;1.00;;;;;;;;5035603;28;45574;-78
2022/04/07 07:53:20;;;;;;;;;2.33;2.33;;;;;;;;5050991;28;45499;-77
2022/04/07 07:55:45;;;;;;;;;0.33;0.33;;;;;;;;5036890;28;45396;-77
2022/04/07 07:58:10;;;;;;;;;1.67;1.67;;;;;;;;5052163;28;45377;-75
2022/04/07 08:00:36;;;;;;;;;2.00;2.00;;;;;;;;5051188;28;45496;-77
2022/04/07 08:03:01;;;;;;;;;1.67;1.67;;;;;;;;5054238;28;46673;-76
2022/04/07 08:05:27;;;;;;;;;3.67;3.33;;;;;;;;5053469;28;45488;-76
2022/04/07 08:07:52;;;;;;;;;3.67;3.00;;;;;;;;5056633;28;45483;-75
2022/04/07 08:10:17;;;;;;;;;4.00;4.00;;;;;;;;5056182;28;45452;-75
2022/04/07 08:12:43;;;;;;;;;4.33;4.33;;;;;;;;5055546;28;46337;-76
2022/04/07 08:15:09;;;;;;;;;3.00;3.00;;;;;;;;5056039;28;45259;-75
2022/04/07 08:17:35;;;;;;;;;2.67;2.67;;;;;;;;5055832;28;45452;-76
2022/04/07 08:20:00;;;;;;;;;2.00;2.00;;;;;;;;5054153;28;45360;-76
2022/04/07 08:22:27;;;;;;;;;1.67;1.67;;;;;;;;5055614;28;45577;-75
2022/04/07 08:24:55;;;;;;;;;3.00;2.67;;;;;;;;5052853;28;45801;-78
2022/04/07 08:27:21;;;;;;;;;1.00;1.00;;;;;;;;5054290;28;45474;-77
2022/04/07 08:29:46;;;;;;;;;2.67;2.00;;;;;;;;5053840;28;45485;-76
2022/04/07 08:32:11;;;;;;;;;7.00;6.00;;;;;;;;5055465;28;46123;-75
2022/04/07 08:34:37;;;;;;;;;6.67;6.67;;;;;;;;5054974;28;45439;-76
2022/04/07 08:37:03;;;;;;;;;9.00;9.00;;;;;;;;5050603;28;45829;-78
2022/04/07 08:39:28;;;;;;;;;10.33;9.33;;;;;;;;5052460;28;45520;-79
2022/04/07 08:41:54;;;;;;;;;5.00;5.00;;;;;;;;5052504;28;45414;-78
2022/04/07 08:44:19;;;;;;;;;6.00;5.00;;;;;;;;5053618;28;45544;-77
2022/04/07 08:46:52;;;;;;;;;5.67;5.33;;;;;;;;5053754;28;45580;-74
2022/04/07 08:49:20;;;;;;;;;7.33;7.33;;;;;;;;5055542;28;45585;-77
2022/04/07 08:51:46;;;;;;;;;5.33;4.67;;;;;;;;5054794;28;46363;-77
2022/04/07 08:54:12;;;;;;;;;5.67;5.67;;;;;;;;5055054;28;45354;-79
2022/04/07 08:56:38;;;;;;;;;8.33;8.33;;;;;;;;5053916;28;45653;-80
2022/04/07 08:59:04;;;;;;;;;6.00;4.67;;;;;;;;5055377;28;45397;-77
2022/04/07 09:01:29;;;;;;;;;6.33;6.00;;;;;;;;5054131;28;46735;-77
2022/04/07 09:03:54;;;;;;;;;4.67;4.33;;;;;;;;5053959;28;45569;-79
2022/04/07 09:06:20;;;;;;;;;6.00;5.33;;;;;;;;5053723;28;45509;-73
2022/04/07 09:08:45;;;;;;;;;8.00;7.33;;;;;;;;5054423;28;45541;-79
2022/04/07 09:11:11;;;;;;;;;5.33;5.00;;;;;;;;5054810;28;46843;-77
2022/04/07 09:13:39;;;;;;;;;5.67;4.33;;;;;;;;5053960;28;45520;-77
2022/04/07 09:16:14;;;;;;;;;7.33;7.00;;;;;;;;5054282;28;45354;-78
2022/04/07 09:18:40;;;;;;;;;16.67;16.67;;;;;;;;5047750;28;45370;-74
2022/04/07 09:21:08;;;;;;;;;6.67;6.00;;;;;;;;5053745;28;45694;-76
2022/04/07 09:23:39;;;;;;;;;13.33;12.00;;;;;;;;5055361;28;45488;-76
2022/04/07 09:26:05;;;;;;;;;2.67;2.33;;;;;;;;5053894;28;45418;-78
2022/04/07 09:28:31;;;;;;;;;6.00;5.33;;;;;;;;5054501;28;45399;-74
2022/04/07 09:30:57;;;;;;;;;8.67;8.67;;;;;;;;5054465;28;46424;-72
2022/04/07 09:33:23;;;;;;;;;10.33;9.67;;;;;;;;5053252;28;45524;-77
2022/04/07 09:35:59;;;;;;;;;7.33;7.00;;;;;;;;5053449;28;45506;-77
2022/04/07 09:38:26;;;;;;;;;1.67;1.67;;;;;;;;5052070;28;45638;-78
2022/04/07 09:40:52;;;;;;;;;2.33;2.33;;;;;;;;5052100;28;46103;-74
2022/04/07 09:43:17;;;;;;;;;2.67;2.67;;;;;;;;5052527;28;46681;-72
2022/04/07 09:45:46;;;;;;;;;0.67;0.67;;;;;;;;5053127;28;45510;-73
2022/04/07 09:48:18;;;;;;;;;16.00;16.00;;;;;;;;5054829;28;45435;-73
2022/04/07 09:51:00;;;;;;;;;0.00;0.00;;;;;;;;5055113;28;45428;-72
2022/04/07 09:53:28;;;;;;;;;2.67;2.67;;;;;;;;5055796;28;45454;-72
2022/04/07 09:55:54;;;;;;;;;2.67;2.67;;;;;;;;5057923;28;45369;-73
2022/04/07 09:58:20;;;;;;;;;3.33;2.33;;;;;;;;5056669;28;45315;-74
2022/04/07 10:00:45;;;;;;;;;2.67;2.67;;;;;;;;5056525;28;45502;-74
2022/04/07 10:03:11;;;;;;;;;1.67;1.67;;;;;;;;5057619;28;45370;-72
2022/04/07 10:05:37;;;;;;;;;3.00;2.00;;;;;;;;5057669;28;46182;-75
2022/04/07 10:08:04;;;;;;;;;4.00;3.67;;;;;;;;5057500;28;45691;-72
2022/04/07 10:10:29;;;;;;;;;7.33;4.33;;;;;;;;5055123;28;45736;-73
2022/04/07 10:12:56;;;;;;;;;3.00;3.00;;;;;;;;5057143;28;45534;-73
2022/04/07 10:15:22;;;;;;;;;3.67;3.67;;;;;;;;5056874;28;45421;-72
2022/04/07 10:17:48;;;;;;;;;5.00;5.00;;;;;;;;5055397;28;45612;-71
2022/04/07 10:20:16;;;;;;;;;2.00;2.00;;;;;;;;5055439;28;47142;-73
2022/04/07 10:23:00;;;;;;;;;2.33;2.00;;;;;;;;5059450;28;45891;-73
2022/04/07 10:25:26;;;;;;;;;1.67;1.33;;;;;;;;5053861;28;45489;-71
2022/04/07 10:27:53;;;;;;;;;2.00;2.00;;;;;;;;5056395;28;45391;-74
2022/04/07 10:30:19;;;;;;;;;1.00;1.00;;;;;;;;5055909;28;46330;-73
2022/04/07 10:32:49;;;;;;;;;2.33;2.33;;;;;;;;5055938;28;45402;-71
2022/04/07 10:35:36;;;;;;;;;3.67;3.67;;;;;;;;5058181;28;45880;-73
2022/04/07 10:38:03;;;;;;;;;1.67;1.67;;;;;;;;5057600;28;45539;-74
2022/04/07 10:40:35;;;;;;;;;4.33;4.33;;;;;;;;5057670;28;46205;-75
2022/04/07 10:43:06;;;;;;;;;2.67;2.67;;;;;;;;5057871;28;45319;-72
2022/04/07 10:45:35;;;;;;;;;2.67;2.67;;;;;;;;5054148;28;45264;-75
2022/04/07 10:48:16;;;;;;;;;1.67;1.67;;;;;;;;5058080;28;45528;-77
2022/04/07 10:50:49;;;;;;;;;3.00;3.00;;;;;;;;5057470;28;45521;-74
2022/04/07 10:53:19;;;;;;;;;3.33;2.33;;;;;;;;5056549;28;45584;-75
2022/04/07 10:55:54;;;;;;;;;3.00;3.00;;;;;;;;5057148;28;45368;-76
2022/04/07 10:58:20;;;;;;;;;3.67;3.67;;;;;;;;5058895;28;45817;-75
2022/04/07 11:00:45;;;;;;;;;5.33;4.67;;;;;;;;5057098;28;45921;-75
2022/04/07 11:03:18;;;;;;;;;1.00;1.00;;;;;;;;5056942;28;45304;-76
2022/04/07 11:05:53;;;;;;;;;3.67;3.67;;;;;;;;5050893;28;45500;-75
2022/04/07 11:08:22;;;;;;;;;2.33;2.00;;;;;;;;5057660;28;45165;-75
2022/04/07 11:10:48;;;;;;;;;2.67;2.67;;;;;;;;5058257;28;45520;-75
2022/04/07 11:13:14;;;;;;;;;3.67;3.67;;;;;;;;5056856;28;45481;-75
2022/04/07 11:15:55;;;;;;;;;3.00;3.00;;;;;;;;5057887;28;45496;-75
2022/04/07 11:18:26;;;;;;;;;2.33;2.33;;;;;;;;5058570;28;45157;-75
2022/04/07 11:21:08;;;;;;;;;4.00;4.00;;;;;;;;5057280;28;45554;-75
2022/04/07 11:23:44;;;;;;;;;2.67;2.67;;;;;;;;5056751;28;45464;-75
2022/04/07 11:26:10;;;;;;;;;5.00;5.00;;;;;;;;5056792;28;45399;-76
2022/04/07 11:28:37;;;;;;;;;3.00;3.00;;;;;;;;5057791;28;45245;-75
2022/04/07 11:31:04;;;;;;;;;1.67;1.67;;;;;;;;5056077;28;45510;-75
2022/04/07 11:33:36;;;;;;;;;4.67;3.00;;;;;;;;5056678;28;45638;-76
2022/04/07 11:36:06;;;;;;;;;4.67;4.00;;;;;;;;5058004;28;45456;-76
2022/04/07 11:38:31;;;;;;;;;4.00;4.00;;;;;;;;5058128;28;45516;-77
2022/04/07 11:41:01;;;;;;;;;4.00;4.00;;;;;;;;5057925;28;45298;-77
2022/04/07 11:43:26;;;;;;;;;3.00;3.00;;;;;;;;5056496;28;45492;-77
2022/04/07 11:45:55;;;;;;;;;4.00;4.00;;;;;;;;5058300;28;45881;-77
2022/04/07 11:48:20;;;;;;;;;6.00;5.00;;;;;;;;5056696;28;45573;-75
2022/04/07 11:50:45;;;;;;;;;3.00;3.00;;;;;;;;5055930;28;46358;-77
2022/04/07 11:53:11;;;;;;;;;6.00;4.00;;;;;;;;5057655;28;46003;-77
2022/04/07 11:55:36;;;;;;;;;4.00;4.00;;;;;;;;5057761;28;45727;-74
2022/04/07 11:58:02;;;;;;;;;6.00;6.00;;;;;;;;5055860;28;45526;-76
2022/04/07 12:00:30;;;;;;;;;5.00;5.00;;;;;;;;5057435;28;45598;-77
2022/04/07 12:02:59;;;;;;;;;6.33;6.33;;;;;;;;5057628;28;45337;-76
2022/04/07 12:05:24;;;;;;;;;7.67;7.00;;;;;;;;5058141;28;45462;-76
2022/04/07 12:07:49;;;;;;;;;11.33;10.33;;;;;;;;5056206;28;45728;-76
2022/04/07 12:10:15;;;;;;;;;10.00;9.00;;;;;;;;5056052;28;45245;-76
2022/04/07 12:12:41;;;;;;;;;7.67;7.00;;;;;;;;5057558;28;45391;-76
2022/04/07 12:15:07;;;;;;;;;8.67;7.67;;;;;;;;5055511;28;45287;-77
2022/04/07 12:17:33;;;;;;;;;8.33;7.33;;;;;;;;5057001;28;45515;-76
2022/04/07 12:19:58;;;;;;;;;4.67;4.67;;;;;;;;5056003;28;47706;-77
2022/04/07 12:22:29;;;;;;;;;8.00;7.67;;;;;;;;5057544;28;45413;-76
2022/04/07 12:25:04;;;;;;;;;4.67;4.67;;;;;;;;5057682;28;45533;-76
2022/04/07 12:27:34;;;;;;;;;6.00;6.00;;;;;;;;5057319;28;45433;-76
2022/04/07 12:30:00;;;;;;;;;6.00;6.00;;;;;;;;5054995;28;46888;-75
2022/04/07 12:32:26;;;;;;;;;6.00;6.00;;;;;;;;5057157;28;45284;-76
2022/04/07 12:34:51;;;;;;;;;7.67;7.67;;;;;;;;5057528;28;45474;-77
2022/04/07 12:37:46;;;;;;;;;3.00;3.00;;;;;;;;5057267;28;45364;-74
2022/04/07 12:40:25;;;;;;;;;5.00;3.67;;;;;;;;5042483;28;46215;-76
2022/04/07 12:42:51;;;;;;;;;9.00;6.00;;;;;;;;5056833;28;45540;-76
2022/04/07 12:45:16;;;;;;;;;4.33;4.00;;;;;;;;5055451;28;45255;-76
2022/04/07 12:47:59;;;;;;;;;5.00;5.00;;;;;;;;5057000;28;45216;-76
2022/04/07 12:50:27;;;;;;;;;5.00;4.00;;;;;;;;5056901;28;46311;-77
2022/04/07 12:52:52;;;;;;;;;5.00;4.00;;;;;;;;5056606;28;45460;-77
2022/04/07 12:55:19;;;;;;;;;7.33;6.00;;;;;;;;5056379;28;45441;-76
2022/04/07 12:57:45;;;;;;;;;3.00;3.00;;;;;;;;5057095;28;45529;-76
2022/04/07 13:00:21;;;;;;;;;8.67;8.00;;;;;;;;5055971;28;45348;-76
2022/04/07 13:02:46;;;;;;;;;8.00;6.00;;;;;;;;5056713;28;45498;-76
2022/04/07 13:05:12;;;;;;;;;7.33;6.00;;;;;;;;5055483;28;45762;-76
2022/04/07 13:07:38;;;;;;;;;3.00;3.00;;;;;;;;5054871;28;45601;-76
2022/04/07 13:10:03;;;;;;;;;8.33;6.67;;;;;;;;5055093;28;46593;-77
2022/04/07 13:12:29;;;;;;;;;5.00;5.00;;;;;;;;5055176;28;45578;-75
2022/04/07 13:14:54;;;;;;;;;23.00;20.33;;;;;;;;5056729;28;45535;-77
2022/04/07 13:17:19;;;;;;;;;17.33;14.33;;;;;;;;5056970;28;45212;-76
2022/04/07 13:19:45;;;;;;;;;23.50;20.25;;;;;;;;5056511;28;46104;-76
2022/04/07 13:22:10;;;;;;;;;55.00;40.75;;;;;;;;5055968;28;45366;-76
2022/04/07 13:24:40;;;;;;;;;24.33;21.33;;;;;;;;5055241;28;45308;-74
2022/04/07 13:27:08;;;;;;;;;23.00;17.33;;;;;;;;5056316;28;45255;-75
2022/04/07 13:29:36;;;;;;;;;12.00;11.00;;;;;;;;5059246;28;45523;-74
2022/04/07 13:32:01;;;;;;;;;10.00;9.00;;;;;;;;5058468;28;45538;-75
2022/04/07 13:34:27;;;;;;;;;11.00;7.67;;;;;;;;5060140;28;45544;-75
2022/04/07 13:36:52;;;;;;;;;14.33;10.33;;;;;;;;5060210;28;45505;-74
2022/04/07 13:39:17;;;;;;;;;5.67;5.33;;;;;;;;5058334;28;46177;-75
2022/04/07 13:41:43;;;;;;;;;15.00;11.67;;;;;;;;5058413;28;45362;-75
2022/04/07 13:44:08;;;;;;;;;5.33;5.33;;;;;;;;5058618;28;45461;-74
2022/04/07 13:46:34;;;;;;;;;5.00;4.33;;;;;;;;5058728;28;45440;-76
2022/04/07 13:49:00;;;;;;;;;7.00;6.00;;;;;;;;5058328;28;46752;-75
2022/04/07 13:51:25;;;;;;;;;3.33;3.00;;;;;;;;5059886;28;45415;-74
2022/04/07 13:53:50;;;;;;;;;8.00;8.00;;;;;;;;5058038;28;45474;-77
2022/04/07 13:56:16;;;;;;;;;13.00;12.00;;;;;;;;5058238;28;45480;-75
2022/04/07 13:58:41;;;;;;;;;8.33;6.00;;;;;;;;5059451;28;45399;-77
2022/04/07 14:01:09;;;;;;;;;1.00;0.33;;;;;;;;5059361;28;45311;-76
2022/04/07 14:03:34;;;;;;;;;1.00;1.00;;;;;;;;5058428;28;45238;-75
2022/04/07 14:06:00;;;;;;;;;1.00;1.00;;;;;;;;5059440;28;45461;-77
2022/04/07 14:08:25;;;;;;;;;2.00;2.00;;;;;;;;5058686;28;46786;-74
2022/04/07 14:10:51;;;;;;;;;8.00;7.33;;;;;;;;5059233;28;45276;-76
2022/04/07 14:13:18;;;;;;;;;1.67;1.67;;;;;;;;5059229;28;45986;-75
2022/04/07 14:15:45;;;;;;;;;3.00;2.00;;;;;;;;5059572;28;45505;-75
2022/04/07 14:18:11;;;;;;;;;0.00;0.00;;;;;;;;5058830;28;45712;-76
2022/04/07 14:20:36;;;;;;;;;4.00;3.00;;;;;;;;5059205;28;45385;-75
2022/04/07 14:23:02;;;;;;;;;5.00;4.00;;;;;;;;5057985;28;45488;-74
2022/04/07 14:25:27;;;;;;;;;5.00;4.00;;;;;;;;5057975;28;45482;-77
2022/04/07 14:27:52;;;;;;;;;1.00;1.00;;;;;;;;5057207;28;46916;-76
2022/04/07 14:30:18;;;;;;;;;3.00;2.00;;;;;;;;5058523;28;45495;-76
2022/04/07 14:32:45;;;;;;;;;3.00;2.00;;;;;;;;5058576;28;45429;-76
2022/04/07 14:35:11;;;;;;;;;2.00;2.00;;;;;;;;5057463;28;45657;-77
2022/04/07 14:37:37;;;;;;;;;1.00;1.00;;;;;;;;5057219;28;47391;-75